地図

経路データ

SID SEASON NUMBER BASIN SUBBASIN NAME ISO_TIME NATURE LAT LON WMO_WIND WMO_PRES WMO_AGENCY TRACK_TYPE DIST2LAND LANDFALL IFLAG USA_AGENCY USA_ATCF_ID USA_LAT USA_LON USA_RECORD USA_STATUS USA_WIND USA_PRES USA_SSHS USA_R34_NE USA_R34_SE USA_R34_SW USA_R34_NW USA_R50_NE USA_R50_SE USA_R50_SW USA_R50_NW USA_R64_NE USA_R64_SE USA_R64_SW USA_R64_NW USA_POCI USA_ROCI USA_RMW USA_EYE TOKYO_LAT TOKYO_LON TOKYO_GRADE TOKYO_WIND TOKYO_PRES TOKYO_R50_DIR TOKYO_R50_LONG TOKYO_R50_SHORT TOKYO_R30_DIR TOKYO_R30_LONG TOKYO_R30_SHORT TOKYO_LAND CMA_LAT CMA_LON CMA_CAT CMA_WIND CMA_PRES HKO_LAT HKO_LON HKO_CAT HKO_WIND HKO_PRES NEWDELHI_LAT NEWDELHI_LON NEWDELHI_GRADE NEWDELHI_WIND NEWDELHI_PRES NEWDELHI_CI NEWDELHI_DP NEWDELHI_POCI REUNION_LAT REUNION_LON REUNION_TYPE REUNION_WIND REUNION_PRES REUNION_TNUM REUNION_CI REUNION_RMW REUNION_R34_NE REUNION_R34_SE REUNION_R34_SW REUNION_R34_NW REUNION_R50_NE REUNION_R50_SE REUNION_R50_SW REUNION_R50_NW REUNION_R64_NE REUNION_R64_SE REUNION_R64_SW REUNION_R64_NW BOM_LAT BOM_LON BOM_TYPE BOM_WIND BOM_PRES BOM_TNUM BOM_CI BOM_RMW BOM_R34_NE BOM_R34_SE BOM_R34_SW BOM_R34_NW BOM_R50_NE BOM_R50_SE BOM_R50_SW BOM_R50_NW BOM_R64_NE BOM_R64_SE BOM_R64_SW BOM_R64_NW BOM_ROCI BOM_POCI BOM_EYE BOM_POS_METHOD BOM_PRES_METHOD NADI_LAT NADI_LON NADI_CAT NADI_WIND NADI_PRES WELLINGTON_LAT WELLINGTON_LON WELLINGTON_WIND WELLINGTON_PRES DS824_LAT DS824_LON DS824_STAGE DS824_WIND DS824_PRES TD9636_LAT TD9636_LON TD9636_STAGE TD9636_WIND TD9636_PRES TD9635_LAT TD9635_LON TD9635_WIND TD9635_PRES TD9635_ROCI NEUMANN_LAT NEUMANN_LON NEUMANN_CLASS NEUMANN_WIND NEUMANN_PRES MLC_LAT MLC_LON MLC_CLASS MLC_WIND MLC_PRES USA_GUST BOM_GUST BOM_GUST_PER REUNION_GUST REUNION_GUST_PER USA_SEAHGT USA_SEARAD_NE USA_SEARAD_SE USA_SEARAD_SW USA_SEARAD_NW STORM_SPEED STORM_DIR
1869042S20072 1869 4 SI MM NOT_NAMED 1869-02-11 06:00:00 NR -19.5000 71.6000 reunion main 1445 1423 _____O________ -1 -19.5000 71.6000 99 9.90000 4 235
1869042S20072 1869 4 SI MM NOT_NAMED 1869-02-11 09:00:00 NR -19.6051 71.4406 main 1423 1411 _____P________ -1 -19.6051 71.4406 99 4 235
1869042S20072 1869 4 SI MM NOT_NAMED 1869-02-11 12:00:00 NR -19.7157 71.2762 main 1411 1389 _____P________ -1 -19.7157 71.2762 99 4 234
1869042S20072 1869 4 SI MM NOT_NAMED 1869-02-11 15:00:00 NR -19.8371 71.1016 main 1389 1367 _____P________ -1 -19.8371 71.1016 99 4 233
1869042S20072 1869 4 SI MM NOT_NAMED 1869-02-11 18:00:00 NR -19.9750 70.9119 main 1367 1345 _____P________ -1 -19.9750 70.9119 99 5 232
1869042S20072 1869 4 SI MM NOT_NAMED 1869-02-11 21:00:00 NR -20.1348 70.7021 main 1345 1323 _____P________ -1 -20.1348 70.7021 99 5 230
1869042S20072 1869 4 SI MM NOT_NAMED 1869-02-12 00:00:00 NR -20.3220 70.4670 main 1323 1292 _____P________ -1 -20.3220 70.4670 99 6 229
1869042S20072 1869 4 SI MM NOT_NAMED 1869-02-12 03:00:00 NR -20.5419 70.2014 main 1292 1260 _____P________ -1 -20.5419 70.2014 99 7 228
1869042S20072 1869 4 SI MM NOT_NAMED 1869-02-12 06:00:00 NR -20.8000 69.9000 reunion main 1260 1229 _____O________ -1 -20.8000 69.9000 99 9.90000 8 227
1869042S20072 1869 4 SI MM NOT_NAMED 1869-02-12 09:00:00 NR -21.1004 69.5599 main 1230 1190 _____P________ -1 -21.1004 69.5599 99 9 226
1869042S20072 1869 4 SI MM NOT_NAMED 1869-02-12 12:00:00 NR -21.4428 69.1889 main 1190 1153 _____P________ -1 -21.4428 69.1889 99 10 224
1869042S20072 1869 4 SI MM NOT_NAMED 1869-02-12 15:00:00 NR -21.8255 68.7973 main 1153 1118 _____P________ -1 -21.8255 68.7973 99 11 222
1869042S20072 1869 4 SI MM NOT_NAMED 1869-02-12 18:00:00 NR -22.2472 68.3956 main 1118 1088 _____P________ -1 -22.2472 68.3956 99 12 220
1869042S20072 1869 4 SI MM NOT_NAMED 1869-02-12 21:00:00 NR -22.7066 67.9943 main 1088 1059 _____P________ -1 -22.7066 67.9943 99 12 217
1869042S20072 1869 4 SI MM NOT_NAMED 1869-02-13 00:00:00 NR -23.2025 67.6041 main 1062 1046 _____P________ -1 -23.2025 67.6041 99 12 214
1869042S20072 1869 4 SI MM NOT_NAMED 1869-02-13 03:00:00 NR -23.7339 67.2357 main 1040 1031 _____P________ -1 -23.7339 67.2357 99 13 210
1869042S20072 1869 4 SI MM NOT_NAMED 1869-02-13 06:00:00 NR -24.3000 66.9000 reunion main 1036 1030 _____O________ -1 -24.3000 66.9000 99 9.90000 14 205
1869042S20072 1869 4 SI MM NOT_NAMED 1869-02-13 09:00:00 NR -24.9599 66.6043 main 1041 1037 _____P________ -1 -24.9599 66.6043 99 15 200
1869042S20072 1869 4 SI MM NOT_NAMED 1869-02-13 12:00:00 NR -25.6697 66.3341 main 1053 1053 _____P________ -1 -25.6697 66.3341 99 15 198
1869042S20072 1869 4 SI MM NOT_NAMED 1869-02-13 15:00:00 NR -26.4066 66.0902 main 1080 1080 _____P________ -1 -26.4066 66.0902 99 15 196
1869042S20072 1869 4 SI MM NOT_NAMED 1869-02-13 18:00:00 NR -27.1479 65.8732 main 1112 1112 _____P________ -1 -27.1479 65.8732 99 15 194
1869042S20072 1869 4 SI MM NOT_NAMED 1869-02-13 21:00:00 NR -27.8708 65.6844 main 1157 1157 _____P________ -1 -27.8708 65.6844 99 14 192
1869042S20072 1869 4 SI MM NOT_NAMED 1869-02-14 00:00:00 NR -28.5523 65.5250 main 1199 1199 _____P________ -1 -28.5523 65.5250 99 13 191
1869042S20072 1869 4 SI MM NOT_NAMED 1869-02-14 03:00:00 NR -29.1696 65.3963 main 1243 1243 _____P________ -1 -29.1696 65.3963 99 12 190
1869042S20072 1869 4 SI MM NOT_NAMED 1869-02-14 06:00:00 NR -29.7000 65.3000 reunion main 1280 1280 _____O________ -1 -29.7000 65.3000 99 9.90000 10 188
1869042S20072 1869 4 SI MM NOT_NAMED 1869-02-14 09:00:00 NR -30.1268 65.2366 main 1309 1309 _____P________ -1 -30.1268 65.2366 99 8 186
1869042S20072 1869 4 SI MM NOT_NAMED 1869-02-14 12:00:00 NR -30.4577 65.2032 main 1345 1345 _____P________ -1 -30.4577 65.2032 99 6 184
1869042S20072 1869 4 SI MM NOT_NAMED 1869-02-14 15:00:00 NR -30.7066 65.1958 main 1363 1363 _____P________ -1 -30.7066 65.1958 99 4 178
1869042S20072 1869 4 SI MM NOT_NAMED 1869-02-14 18:00:00 NR -30.8872 65.2102 main 1382 1382 _____P________ -1 -30.8872 65.2102 99 3 173
1869042S20072 1869 4 SI MM NOT_NAMED 1869-02-14 21:00:00 NR -31.0132 65.2422 main 1391 1391 _____P________ -1 -31.0132 65.2422 99 2 163
1869042S20072 1869 4 SI MM NOT_NAMED 1869-02-15 00:00:00 NR -31.0982 65.2874 main 1406 1406 _____P________ -1 -31.0982 65.2874 99 2 148
1869042S20072 1869 4 SI MM NOT_NAMED 1869-02-15 03:00:00 NR -31.1559 65.3415 main 1415 1415 _____P________ -1 -31.1559 65.3415 99 1 136
1869042S20072 1869 4 SI MM NOT_NAMED 1869-02-15 06:00:00 NR -31.2000 65.4000 reunion main 1420 _____O________ -1 -31.2000 65.4000 99 9.90000 1 130

IBTrACS Databaseについて

本データベースは、米国NOAAが公開する1842年以降の世界の熱帯低気圧のベストトラックデータアーカイブInternational Best Track Archive for Climate Stewardship (IBTrACS)を、ウェブで閲覧しやすい形式に変換したものです。

最終更新日:2021-10-08